sensor_id;sensor_type;location;lat;lon;timestamp;P1;durP1;ratioP1;P2;durP2;ratioP2
19087;SDS011;9676;50.916;13.352;2022-10-30T00:00:15;10.50;;;9.50;;
19087;SDS011;9676;50.916;13.352;2022-10-30T00:02:45;10.60;;;9.50;;
19087;SDS011;9676;50.916;13.352;2022-10-30T00:05:15;10.83;;;9.70;;
19087;SDS011;9676;50.916;13.352;2022-10-30T00:07:47;10.87;;;9.80;;
19087;SDS011;9676;50.916;13.352;2022-10-30T00:10:17;10.77;;;9.47;;
19087;SDS011;9676;50.916;13.352;2022-10-30T00:12:46;10.47;;;9.47;;
19087;SDS011;9676;50.916;13.352;2022-10-30T00:15:15;14.63;;;10.20;;
19087;SDS011;9676;50.916;13.352;2022-10-30T00:17:44;10.77;;;9.67;;
19087;SDS011;9676;50.916;13.352;2022-10-30T00:20:13;15.83;;;9.57;;
19087;SDS011;9676;50.916;13.352;2022-10-30T00:22:42;12.23;;;10.30;;
19087;SDS011;9676;50.916;13.352;2022-10-30T00:25:13;11.53;;;9.80;;
19087;SDS011;9676;50.916;13.352;2022-10-30T00:27:42;13.90;;;9.90;;
19087;SDS011;9676;50.916;13.352;2022-10-30T00:30:11;11.50;;;10.10;;
19087;SDS011;9676;50.916;13.352;2022-10-30T00:32:41;10.60;;;9.60;;
19087;SDS011;9676;50.916;13.352;2022-10-30T00:35:10;10.93;;;9.83;;
19087;SDS011;9676;50.916;13.352;2022-10-30T00:37:39;10.13;;;9.20;;
19087;SDS011;9676;50.916;13.352;2022-10-30T00:40:10;11.10;;;9.40;;
19087;SDS011;9676;50.916;13.352;2022-10-30T00:42:44;10.27;;;9.20;;
19087;SDS011;9676;50.916;13.352;2022-10-30T00:45:14;11.37;;;9.50;;
19087;SDS011;9676;50.916;13.352;2022-10-30T00:47:45;11.20;;;9.87;;
19087;SDS011;9676;50.916;13.352;2022-10-30T00:50:20;10.60;;;9.60;;
19087;SDS011;9676;50.916;13.352;2022-10-30T00:52:59;11.80;;;9.60;;
19087;SDS011;9676;50.916;13.352;2022-10-30T00:55:35;11.57;;;9.90;;
19087;SDS011;9676;50.916;13.352;2022-10-30T00:58:15;11.50;;;10.17;;
19087;SDS011;9676;50.916;13.352;2022-10-30T01:00:49;11.20;;;9.60;;
19087;SDS011;9676;50.916;13.352;2022-10-30T01:03:22;11.57;;;10.37;;
19087;SDS011;9676;50.916;13.352;2022-10-30T01:05:55;11.80;;;9.80;;
19087;SDS011;9676;50.916;13.352;2022-10-30T01:08:28;12.57;;;10.10;;
19087;SDS011;9676;50.916;13.352;2022-10-30T01:10:59;10.77;;;9.73;;
19087;SDS011;9676;50.916;13.352;2022-10-30T01:13:30;11.93;;;10.00;;
19087;SDS011;9676;50.916;13.352;2022-10-30T01:16:07;11.37;;;9.90;;
19087;SDS011;9676;50.916;13.352;2022-10-30T01:18:49;11.00;;;9.80;;
19087;SDS011;9676;50.916;13.352;2022-10-30T01:21:30;11.30;;;9.90;;
19087;SDS011;9676;50.916;13.352;2022-10-30T01:24:22;10.83;;;9.73;;
19087;SDS011;9676;50.916;13.352;2022-10-30T01:27:13;10.90;;;9.80;;
19087;SDS011;9676;50.916;13.352;2022-10-30T01:29:56;12.03;;;10.20;;
19087;SDS011;9676;50.916;13.352;2022-10-30T01:32:42;11.40;;;9.80;;
19087;SDS011;9676;50.916;13.352;2022-10-30T01:35:31;12.20;;;10.07;;
19087;SDS011;9676;50.916;13.352;2022-10-30T01:38:09;10.97;;;9.87;;
19087;SDS011;9676;50.916;13.352;2022-10-30T01:40:43;11.60;;;10.00;;
19087;SDS011;9676;50.916;13.352;2022-10-30T01:43:14;15.83;;;9.93;;
19087;SDS011;9676;50.916;13.352;2022-10-30T01:45:50;10.47;;;9.43;;
19087;SDS011;9676;50.916;13.352;2022-10-30T01:48:42;10.20;;;9.20;;
19087;SDS011;9676;50.916;13.352;2022-10-30T01:51:33;10.63;;;9.60;;
19087;SDS011;9676;50.916;13.352;2022-10-30T01:54:20;12.07;;;9.87;;
19087;SDS011;9676;50.916;13.352;2022-10-30T01:57:02;10.77;;;9.67;;
19087;SDS011;9676;50.916;13.352;2022-10-30T01:59:41;10.90;;;9.80;;
19087;SDS011;9676;50.916;13.352;2022-10-30T02:02:15;11.20;;;9.97;;
19087;SDS011;9676;50.916;13.352;2022-10-30T02:04:44;14.13;;;9.63;;
19087;SDS011;9676;50.916;13.352;2022-10-30T02:07:14;11.63;;;10.43;;
19087;SDS011;9676;50.916;13.352;2022-10-30T02:09:49;12.60;;;10.47;;
19087;SDS011;9676;50.916;13.352;2022-10-30T02:12:19;10.90;;;9.80;;
19087;SDS011;9676;50.916;13.352;2022-10-30T02:14:52;13.70;;;9.90;;
19087;SDS011;9676;50.916;13.352;2022-10-30T02:17:24;10.77;;;9.60;;
19087;SDS011;9676;50.916;13.352;2022-10-30T02:19:55;11.20;;;10.03;;
19087;SDS011;9676;50.916;13.352;2022-10-30T02:22:25;11.80;;;9.60;;
19087;SDS011;9676;50.916;13.352;2022-10-30T02:24:54;13.03;;;9.43;;
19087;SDS011;9676;50.916;13.352;2022-10-30T02:27:24;11.40;;;9.80;;
19087;SDS011;9676;50.916;13.352;2022-10-30T02:29:53;10.90;;;9.90;;
19087;SDS011;9676;50.916;13.352;2022-10-30T02:32:22;10.27;;;9.30;;
19087;SDS011;9676;50.916;13.352;2022-10-30T02:34:52;18.20;;;9.60;;
19087;SDS011;9676;50.916;13.352;2022-10-30T02:37:21;10.37;;;9.33;;
19087;SDS011;9676;50.916;13.352;2022-10-30T02:39:52;10.03;;;9.10;;
19087;SDS011;9676;50.916;13.352;2022-10-30T02:42:21;10.60;;;9.60;;
19087;SDS011;9676;50.916;13.352;2022-10-30T02:44:52;9.60;;;8.80;;
19087;SDS011;9676;50.916;13.352;2022-10-30T02:47:21;10.00;;;9.00;;
19087;SDS011;9676;50.916;13.352;2022-10-30T02:49:51;9.97;;;9.03;;
19087;SDS011;9676;50.916;13.352;2022-10-30T02:52:20;10.10;;;9.20;;
19087;SDS011;9676;50.916;13.352;2022-10-30T02:54:49;10.73;;;9.63;;
19087;SDS011;9676;50.916;13.352;2022-10-30T02:57:20;9.87;;;8.87;;
19087;SDS011;9676;50.916;13.352;2022-10-30T02:59:49;10.17;;;9.17;;
19087;SDS011;9676;50.916;13.352;2022-10-30T03:02:18;10.17;;;9.00;;
19087;SDS011;9676;50.916;13.352;2022-10-30T03:04:47;10.00;;;9.00;;
19087;SDS011;9676;50.916;13.352;2022-10-30T03:07:16;10.33;;;9.33;;
19087;SDS011;9676;50.916;13.352;2022-10-30T03:09:45;9.80;;;8.90;;
19087;SDS011;9676;50.916;13.352;2022-10-30T03:12:16;10.10;;;9.10;;
19087;SDS011;9676;50.916;13.352;2022-10-30T03:14:45;9.93;;;9.03;;
19087;SDS011;9676;50.916;13.352;2022-10-30T03:17:14;11.07;;;9.50;;
19087;SDS011;9676;50.916;13.352;2022-10-30T03:19:43;11.03;;;9.70;;
19087;SDS011;9676;50.916;13.352;2022-10-30T03:22:12;10.90;;;9.80;;
19087;SDS011;9676;50.916;13.352;2022-10-30T03:24:41;10.17;;;9.23;;
19087;SDS011;9676;50.916;13.352;2022-10-30T03:27:10;10.70;;;9.20;;
19087;SDS011;9676;50.916;13.352;2022-10-30T03:29:41;10.93;;;9.60;;
19087;SDS011;9676;50.916;13.352;2022-10-30T03:32:11;10.13;;;9.23;;
19087;SDS011;9676;50.916;13.352;2022-10-30T03:34:46;10.40;;;9.40;;
19087;SDS011;9676;50.916;13.352;2022-10-30T03:37:18;10.30;;;9.30;;
19087;SDS011;9676;50.916;13.352;2022-10-30T03:39:47;9.80;;;8.90;;
19087;SDS011;9676;50.916;13.352;2022-10-30T03:42:20;10.57;;;9.47;;
19087;SDS011;9676;50.916;13.352;2022-10-30T03:44:52;11.30;;;9.17;;
19087;SDS011;9676;50.916;13.352;2022-10-30T03:47:21;10.20;;;9.23;;
19087;SDS011;9676;50.916;13.352;2022-10-30T03:49:50;10.47;;;9.37;;
19087;SDS011;9676;50.916;13.352;2022-10-30T03:52:20;10.03;;;9.13;;
19087;SDS011;9676;50.916;13.352;2022-10-30T03:54:51;10.50;;;9.30;;
19087;SDS011;9676;50.916;13.352;2022-10-30T03:57:20;9.90;;;9.00;;
19087;SDS011;9676;50.916;13.352;2022-10-30T04:00:12;10.50;;;9.40;;
19087;SDS011;9676;50.916;13.352;2022-10-30T04:02:54;12.93;;;9.00;;
19087;SDS011;9676;50.916;13.352;2022-10-30T04:05:26;10.37;;;9.37;;
19087;SDS011;9676;50.916;13.352;2022-10-30T04:07:56;10.13;;;9.13;;
19087;SDS011;9676;50.916;13.352;2022-10-30T04:10:33;10.20;;;9.30;;
19087;SDS011;9676;50.916;13.352;2022-10-30T04:13:08;10.20;;;9.20;;
19087;SDS011;9676;50.916;13.352;2022-10-30T04:15:47;10.00;;;9.10;;
19087;SDS011;9676;50.916;13.352;2022-10-30T04:18:24;10.33;;;9.33;;
19087;SDS011;9676;50.916;13.352;2022-10-30T04:20:54;10.27;;;9.30;;
19087;SDS011;9676;50.916;13.352;2022-10-30T04:23:23;9.47;;;8.67;;
19087;SDS011;9676;50.916;13.352;2022-10-30T04:25:54;11.63;;;9.10;;
19087;SDS011;9676;50.916;13.352;2022-10-30T04:28:25;9.87;;;8.90;;
19087;SDS011;9676;50.916;13.352;2022-10-30T04:30:56;9.47;;;8.67;;
19087;SDS011;9676;50.916;13.352;2022-10-30T04:33:25;12.13;;;8.77;;
19087;SDS011;9676;50.916;13.352;2022-10-30T04:35:56;15.17;;;9.30;;
19087;SDS011;9676;50.916;13.352;2022-10-30T04:38:26;9.50;;;8.60;;
19087;SDS011;9676;50.916;13.352;2022-10-30T04:40:56;9.73;;;8.83;;
19087;SDS011;9676;50.916;13.352;2022-10-30T04:43:40;12.00;;;9.33;;
19087;SDS011;9676;50.916;13.352;2022-10-30T04:46:10;9.70;;;8.80;;
19087;SDS011;9676;50.916;13.352;2022-10-30T04:48:39;11.50;;;9.23;;
19087;SDS011;9676;50.916;13.352;2022-10-30T04:51:09;9.70;;;8.90;;
19087;SDS011;9676;50.916;13.352;2022-10-30T04:53:38;9.47;;;8.67;;
19087;SDS011;9676;50.916;13.352;2022-10-30T04:56:11;10.47;;;8.97;;
19087;SDS011;9676;50.916;13.352;2022-10-30T04:58:40;9.93;;;8.93;;
19087;SDS011;9676;50.916;13.352;2022-10-30T05:01:11;9.83;;;8.87;;
19087;SDS011;9676;50.916;13.352;2022-10-30T05:03:40;15.80;;;9.10;;
19087;SDS011;9676;50.916;13.352;2022-10-30T05:06:15;9.53;;;8.70;;
19087;SDS011;9676;50.916;13.352;2022-10-30T05:08:49;9.50;;;8.70;;
19087;SDS011;9676;50.916;13.352;2022-10-30T05:11:34;9.60;;;8.70;;
19087;SDS011;9676;50.916;13.352;2022-10-30T05:14:03;10.00;;;9.00;;
19087;SDS011;9676;50.916;13.352;2022-10-30T05:16:34;9.80;;;8.90;;
19087;SDS011;9676;50.916;13.352;2022-10-30T05:19:03;10.00;;;9.10;;
19087;SDS011;9676;50.916;13.352;2022-10-30T05:21:34;11.43;;;8.83;;
19087;SDS011;9676;50.916;13.352;2022-10-30T05:24:04;14.70;;;9.20;;
19087;SDS011;9676;50.916;13.352;2022-10-30T05:26:41;9.73;;;8.73;;
19087;SDS011;9676;50.916;13.352;2022-10-30T05:29:11;10.10;;;9.00;;
19087;SDS011;9676;50.916;13.352;2022-10-30T05:31:42;9.87;;;8.97;;
19087;SDS011;9676;50.916;13.352;2022-10-30T05:34:11;10.60;;;8.93;;
19087;SDS011;9676;50.916;13.352;2022-10-30T05:36:42;9.53;;;8.73;;
19087;SDS011;9676;50.916;13.352;2022-10-30T05:39:13;9.60;;;8.80;;
19087;SDS011;9676;50.916;13.352;2022-10-30T05:41:46;10.10;;;8.83;;
19087;SDS011;9676;50.916;13.352;2022-10-30T05:44:16;9.70;;;8.80;;
19087;SDS011;9676;50.916;13.352;2022-10-30T05:47:09;10.53;;;8.83;;
19087;SDS011;9676;50.916;13.352;2022-10-30T05:49:43;9.43;;;8.70;;
19087;SDS011;9676;50.916;13.352;2022-10-30T05:52:17;9.60;;;8.70;;
19087;SDS011;9676;50.916;13.352;2022-10-30T05:54:48;9.67;;;8.87;;
19087;SDS011;9676;50.916;13.352;2022-10-30T05:57:29;10.20;;;9.20;;
19087;SDS011;9676;50.916;13.352;2022-10-30T05:59:59;10.40;;;9.27;;
19087;SDS011;9676;50.916;13.352;2022-10-30T06:02:50;10.70;;;9.60;;
19087;SDS011;9676;50.916;13.352;2022-10-30T06:05:20;10.57;;;9.50;;
19087;SDS011;9676;50.916;13.352;2022-10-30T06:07:49;12.40;;;10.33;;
19087;SDS011;9676;50.916;13.352;2022-10-30T06:10:22;11.07;;;9.97;;
19087;SDS011;9676;50.916;13.352;2022-10-30T06:13:23;11.67;;;9.80;;
19087;SDS011;9676;50.916;13.352;2022-10-30T06:16:07;10.53;;;9.43;;
19087;SDS011;9676;50.916;13.352;2022-10-30T06:18:55;11.80;;;9.13;;
19087;SDS011;9676;50.916;13.352;2022-10-30T06:21:26;11.13;;;9.20;;
19087;SDS011;9676;50.916;13.352;2022-10-30T06:24:16;11.03;;;9.70;;
19087;SDS011;9676;50.916;13.352;2022-10-30T06:27:04;10.90;;;9.47;;
19087;SDS011;9676;50.916;13.352;2022-10-30T06:29:33;10.37;;;9.30;;
19087;SDS011;9676;50.916;13.352;2022-10-30T06:32:02;11.27;;;9.60;;
19087;SDS011;9676;50.916;13.352;2022-10-30T06:34:35;11.77;;;10.03;;
19087;SDS011;9676;50.916;13.352;2022-10-30T06:37:05;10.90;;;9.80;;
19087;SDS011;9676;50.916;13.352;2022-10-30T06:39:34;12.10;;;9.90;;
19087;SDS011;9676;50.916;13.352;2022-10-30T06:42:21;12.13;;;9.73;;
19087;SDS011;9676;50.916;13.352;2022-10-30T06:45:05;10.70;;;9.70;;
19087;SDS011;9676;50.916;13.352;2022-10-30T06:47:35;10.67;;;9.63;;
19087;SDS011;9676;50.916;13.352;2022-10-30T06:50:08;17.03;;;10.33;;
19087;SDS011;9676;50.916;13.352;2022-10-30T06:52:40;10.30;;;9.30;;
19087;SDS011;9676;50.916;13.352;2022-10-30T06:55:10;11.67;;;9.50;;
19087;SDS011;9676;50.916;13.352;2022-10-30T06:57:51;11.77;;;9.57;;
19087;SDS011;9676;50.916;13.352;2022-10-30T07:00:58;10.73;;;9.33;;
19087;SDS011;9676;50.916;13.352;2022-10-30T07:03:53;9.77;;;8.87;;
19087;SDS011;9676;50.916;13.352;2022-10-30T07:06:24;13.53;;;9.13;;
19087;SDS011;9676;50.916;13.352;2022-10-30T07:08:53;11.93;;;8.83;;
19087;SDS011;9676;50.916;13.352;2022-10-30T07:11:23;9.60;;;8.60;;
19087;SDS011;9676;50.916;13.352;2022-10-30T07:14:27;9.47;;;8.57;;
19087;SDS011;9676;50.916;13.352;2022-10-30T07:17:10;12.23;;;9.10;;
19087;SDS011;9676;50.916;13.352;2022-10-30T07:19:42;9.60;;;8.70;;
19087;SDS011;9676;50.916;13.352;2022-10-30T07:22:13;9.57;;;8.70;;
19087;SDS011;9676;50.916;13.352;2022-10-30T07:24:46;9.80;;;8.87;;
19087;SDS011;9676;50.916;13.352;2022-10-30T07:27:48;12.50;;;8.87;;
19087;SDS011;9676;50.916;13.352;2022-10-30T07:30:44;10.00;;;9.00;;
19087;SDS011;9676;50.916;13.352;2022-10-30T07:33:42;10.00;;;9.00;;
19087;SDS011;9676;50.916;13.352;2022-10-30T07:36:39;9.77;;;8.83;;
19087;SDS011;9676;50.916;13.352;2022-10-30T07:39:33;9.90;;;8.90;;
19087;SDS011;9676;50.916;13.352;2022-10-30T07:42:23;10.13;;;8.93;;
19087;SDS011;9676;50.916;13.352;2022-10-30T07:45:27;10.47;;;8.77;;
19087;SDS011;9676;50.916;13.352;2022-10-30T07:48:20;9.87;;;8.97;;
19087;SDS011;9676;50.916;13.352;2022-10-30T07:50:59;10.30;;;9.20;;
19087;SDS011;9676;50.916;13.352;2022-10-30T07:53:28;9.83;;;8.83;;
19087;SDS011;9676;50.916;13.352;2022-10-30T07:55:58;9.60;;;8.60;;
19087;SDS011;9676;50.916;13.352;2022-10-30T07:58:47;10.50;;;8.93;;
19087;SDS011;9676;50.916;13.352;2022-10-30T08:01:32;10.33;;;9.20;;
19087;SDS011;9676;50.916;13.352;2022-10-30T08:04:15;10.90;;;9.17;;
19087;SDS011;9676;50.916;13.352;2022-10-30T08:06:44;10.50;;;9.40;;
19087;SDS011;9676;50.916;13.352;2022-10-30T08:09:13;10.97;;;9.43;;
19087;SDS011;9676;50.916;13.352;2022-10-30T08:11:47;10.30;;;9.30;;
19087;SDS011;9676;50.916;13.352;2022-10-30T08:14:16;10.83;;;9.47;;
19087;SDS011;9676;50.916;13.352;2022-10-30T08:16:47;12.13;;;9.83;;
19087;SDS011;9676;50.916;13.352;2022-10-30T08:19:18;17.40;;;10.80;;
19087;SDS011;9676;50.916;13.352;2022-10-30T08:21:47;15.33;;;10.67;;
19087;SDS011;9676;50.916;13.352;2022-10-30T08:24:18;19.10;;;11.50;;
19087;SDS011;9676;50.916;13.352;2022-10-30T08:26:51;16.07;;;11.30;;
19087;SDS011;9676;50.916;13.352;2022-10-30T08:29:22;16.53;;;11.80;;
19087;SDS011;9676;50.916;13.352;2022-10-30T08:31:51;13.30;;;11.23;;
19087;SDS011;9676;50.916;13.352;2022-10-30T08:34:21;16.47;;;11.60;;
19087;SDS011;9676;50.916;13.352;2022-10-30T08:36:54;13.20;;;10.97;;
19087;SDS011;9676;50.916;13.352;2022-10-30T08:39:26;16.10;;;11.50;;
19087;SDS011;9676;50.916;13.352;2022-10-30T08:42:05;13.37;;;10.40;;
19087;SDS011;9676;50.916;13.352;2022-10-30T08:44:41;12.60;;;9.97;;
19087;SDS011;9676;50.916;13.352;2022-10-30T08:47:40;10.73;;;9.63;;
19087;SDS011;9676;50.916;13.352;2022-10-30T08:50:09;13.90;;;9.73;;
19087;SDS011;9676;50.916;13.352;2022-10-30T08:52:38;10.80;;;9.70;;
19087;SDS011;9676;50.916;13.352;2022-10-30T08:55:07;11.20;;;9.40;;
19087;SDS011;9676;50.916;13.352;2022-10-30T08:57:38;11.63;;;9.60;;
19087;SDS011;9676;50.916;13.352;2022-10-30T09:00:08;12.30;;;9.53;;
19087;SDS011;9676;50.916;13.352;2022-10-30T09:03:01;15.17;;;9.40;;
19087;SDS011;9676;50.916;13.352;2022-10-30T09:05:49;10.83;;;9.10;;
19087;SDS011;9676;50.916;13.352;2022-10-30T09:08:27;11.00;;;9.40;;
19087;SDS011;9676;50.916;13.352;2022-10-30T09:11:06;10.27;;;9.27;;
19087;SDS011;9676;50.916;13.352;2022-10-30T09:13:38;10.03;;;9.00;;
19087;SDS011;9676;50.916;13.352;2022-10-30T09:16:07;11.50;;;9.40;;
19087;SDS011;9676;50.916;13.352;2022-10-30T09:18:37;10.47;;;9.30;;
19087;SDS011;9676;50.916;13.352;2022-10-30T09:21:07;12.13;;;9.50;;
19087;SDS011;9676;50.916;13.352;2022-10-30T09:23:45;10.60;;;9.43;;
19087;SDS011;9676;50.916;13.352;2022-10-30T09:26:33;12.43;;;9.53;;
19087;SDS011;9676;50.916;13.352;2022-10-30T09:29:13;13.17;;;9.67;;
19087;SDS011;9676;50.916;13.352;2022-10-30T09:32:11;11.60;;;9.57;;
19087;SDS011;9676;50.916;13.352;2022-10-30T09:34:50;10.60;;;8.60;;
19087;SDS011;9676;50.916;13.352;2022-10-30T09:37:22;10.73;;;9.00;;
19087;SDS011;9676;50.916;13.352;2022-10-30T09:39:58;12.30;;;8.90;;
19087;SDS011;9676;50.916;13.352;2022-10-30T09:42:35;10.13;;;8.97;;
19087;SDS011;9676;50.916;13.352;2022-10-30T09:45:24;9.30;;;8.40;;
19087;SDS011;9676;50.916;13.352;2022-10-30T09:48:26;11.13;;;8.67;;
19087;SDS011;9676;50.916;13.352;2022-10-30T09:51:20;13.80;;;9.10;;
19087;SDS011;9676;50.916;13.352;2022-10-30T09:54:20;9.57;;;8.63;;
19087;SDS011;9676;50.916;13.352;2022-10-30T09:57:03;10.23;;;8.57;;
19087;SDS011;9676;50.916;13.352;2022-10-30T09:59:42;20.30;;;9.13;;
19087;SDS011;9676;50.916;13.352;2022-10-30T10:02:26;9.80;;;8.80;;
19087;SDS011;9676;50.916;13.352;2022-10-30T10:05:04;10.80;;;8.80;;
19087;SDS011;9676;50.916;13.352;2022-10-30T10:08:06;11.73;;;9.00;;
19087;SDS011;9676;50.916;13.352;2022-10-30T10:11:04;10.17;;;9.00;;
19087;SDS011;9676;50.916;13.352;2022-10-30T10:13:40;10.20;;;8.90;;
19087;SDS011;9676;50.916;13.352;2022-10-30T10:16:16;14.20;;;8.70;;
19087;SDS011;9676;50.916;13.352;2022-10-30T10:18:50;9.80;;;8.80;;
19087;SDS011;9676;50.916;13.352;2022-10-30T10:21:28;11.20;;;8.90;;
19087;SDS011;9676;50.916;13.352;2022-10-30T10:24:00;14.27;;;9.30;;
19087;SDS011;9676;50.916;13.352;2022-10-30T10:26:35;12.80;;;8.70;;
19087;SDS011;9676;50.916;13.352;2022-10-30T10:29:20;12.47;;;8.60;;
19087;SDS011;9676;50.916;13.352;2022-10-30T10:32:06;9.63;;;8.67;;
19087;SDS011;9676;50.916;13.352;2022-10-30T10:35:15;10.47;;;8.90;;
19087;SDS011;9676;50.916;13.352;2022-10-30T10:38:07;11.73;;;8.60;;
19087;SDS011;9676;50.916;13.352;2022-10-30T10:40:49;11.47;;;8.40;;
19087;SDS011;9676;50.916;13.352;2022-10-30T10:43:31;13.60;;;8.90;;
19087;SDS011;9676;50.916;13.352;2022-10-30T10:46:17;11.80;;;8.80;;
19087;SDS011;9676;50.916;13.352;2022-10-30T10:49:04;10.70;;;8.70;;
19087;SDS011;9676;50.916;13.352;2022-10-30T10:51:54;12.67;;;8.90;;
19087;SDS011;9676;50.916;13.352;2022-10-30T10:54:29;10.50;;;8.70;;
19087;SDS011;9676;50.916;13.352;2022-10-30T10:57:06;11.87;;;8.63;;
19087;SDS011;9676;50.916;13.352;2022-10-30T10:59:42;11.10;;;8.70;;
19087;SDS011;9676;50.916;13.352;2022-10-30T11:02:23;9.87;;;8.60;;
19087;SDS011;9676;50.916;13.352;2022-10-30T11:05:03;9.27;;;8.30;;
19087;SDS011;9676;50.916;13.352;2022-10-30T11:07:38;11.07;;;8.53;;
19087;SDS011;9676;50.916;13.352;2022-10-30T11:10:15;9.40;;;8.40;;
19087;SDS011;9676;50.916;13.352;2022-10-30T11:12:47;20.00;;;9.00;;
19087;SDS011;9676;50.916;13.352;2022-10-30T11:15:28;9.93;;;8.73;;
19087;SDS011;9676;50.916;13.352;2022-10-30T11:18:07;12.33;;;9.00;;
19087;SDS011;9676;50.916;13.352;2022-10-30T11:20:39;11.90;;;9.00;;
19087;SDS011;9676;50.916;13.352;2022-10-30T11:23:35;11.73;;;8.80;;
19087;SDS011;9676;50.916;13.352;2022-10-30T11:29:04;11.13;;;8.90;;
19087;SDS011;9676;50.916;13.352;2022-10-30T11:31:40;10.20;;;9.00;;
19087;SDS011;9676;50.916;13.352;2022-10-30T11:34:19;15.20;;;9.40;;
19087;SDS011;9676;50.916;13.352;2022-10-30T11:37:00;10.20;;;8.80;;
19087;SDS011;9676;50.916;13.352;2022-10-30T11:39:32;9.73;;;8.73;;
19087;SDS011;9676;50.916;13.352;2022-10-30T11:42:03;12.73;;;9.00;;
19087;SDS011;9676;50.916;13.352;2022-10-30T11:44:40;14.53;;;9.10;;
19087;SDS011;9676;50.916;13.352;2022-10-30T11:47:11;10.00;;;8.80;;
19087;SDS011;9676;50.916;13.352;2022-10-30T11:49:43;9.80;;;8.80;;
19087;SDS011;9676;50.916;13.352;2022-10-30T11:52:16;16.03;;;9.17;;
19087;SDS011;9676;50.916;13.352;2022-10-30T11:54:51;15.00;;;9.33;;
19087;SDS011;9676;50.916;13.352;2022-10-30T11:57:23;11.47;;;9.20;;
19087;SDS011;9676;50.916;13.352;2022-10-30T11:59:58;12.20;;;8.93;;
19087;SDS011;9676;50.916;13.352;2022-10-30T12:02:52;11.10;;;8.97;;
19087;SDS011;9676;50.916;13.352;2022-10-30T12:08:17;11.10;;;9.37;;
19087;SDS011;9676;50.916;13.352;2022-10-30T12:10:57;10.70;;;9.20;;
19087;SDS011;9676;50.916;13.352;2022-10-30T12:13:31;11.73;;;9.60;;
19087;SDS011;9676;50.916;13.352;2022-10-30T12:16:12;12.20;;;8.90;;
19087;SDS011;9676;50.916;13.352;2022-10-30T12:18:53;11.67;;;9.67;;
19087;SDS011;9676;50.916;13.352;2022-10-30T12:21:28;10.93;;;9.30;;
19087;SDS011;9676;50.916;13.352;2022-10-30T12:24:04;14.03;;;9.13;;
19087;SDS011;9676;50.916;13.352;2022-10-30T12:26:46;12.90;;;9.37;;
19087;SDS011;9676;50.916;13.352;2022-10-30T12:29:19;11.50;;;9.20;;
19087;SDS011;9676;50.916;13.352;2022-10-30T12:32:13;10.27;;;8.83;;
19087;SDS011;9676;50.916;13.352;2022-10-30T12:34:46;10.90;;;9.80;;
19087;SDS011;9676;50.916;13.352;2022-10-30T12:37:23;14.07;;;8.97;;
19087;SDS011;9676;50.916;13.352;2022-10-30T12:39:59;10.30;;;9.20;;
19087;SDS011;9676;50.916;13.352;2022-10-30T12:42:39;11.73;;;9.17;;
19087;SDS011;9676;50.916;13.352;2022-10-30T12:45:18;12.03;;;9.20;;
19087;SDS011;9676;50.916;13.352;2022-10-30T12:47:53;11.00;;;9.37;;
19087;SDS011;9676;50.916;13.352;2022-10-30T12:50:28;12.80;;;9.00;;
19087;SDS011;9676;50.916;13.352;2022-10-30T12:53:06;10.27;;;9.20;;
19087;SDS011;9676;50.916;13.352;2022-10-30T12:55:48;11.87;;;9.27;;
19087;SDS011;9676;50.916;13.352;2022-10-30T12:58:25;12.03;;;9.00;;
19087;SDS011;9676;50.916;13.352;2022-10-30T13:01:05;10.17;;;9.17;;
19087;SDS011;9676;50.916;13.352;2022-10-30T13:03:45;10.00;;;9.10;;
19087;SDS011;9676;50.916;13.352;2022-10-30T13:06:22;11.90;;;9.70;;
19087;SDS011;9676;50.916;13.352;2022-10-30T13:09:02;9.97;;;8.97;;
19087;SDS011;9676;50.916;13.352;2022-10-30T13:11:42;10.30;;;9.30;;
19087;SDS011;9676;50.916;13.352;2022-10-30T13:14:18;11.13;;;9.30;;
19087;SDS011;9676;50.916;13.352;2022-10-30T13:16:50;11.10;;;9.20;;
19087;SDS011;9676;50.916;13.352;2022-10-30T13:19:19;11.90;;;9.17;;
19087;SDS011;9676;50.916;13.352;2022-10-30T13:21:50;11.43;;;9.40;;
19087;SDS011;9676;50.916;13.352;2022-10-30T13:24:29;11.67;;;9.50;;
19087;SDS011;9676;50.916;13.352;2022-10-30T13:27:13;10.30;;;9.20;;
19087;SDS011;9676;50.916;13.352;2022-10-30T13:29:52;11.90;;;9.53;;
19087;SDS011;9676;50.916;13.352;2022-10-30T13:32:30;10.20;;;9.20;;
19087;SDS011;9676;50.916;13.352;2022-10-30T13:35:16;11.23;;;9.17;;
19087;SDS011;9676;50.916;13.352;2022-10-30T13:37:56;15.73;;;10.00;;
19087;SDS011;9676;50.916;13.352;2022-10-30T13:40:35;16.03;;;9.43;;
19087;SDS011;9676;50.916;13.352;2022-10-30T13:43:14;10.93;;;9.10;;
19087;SDS011;9676;50.916;13.352;2022-10-30T13:46:00;11.93;;;9.23;;
19087;SDS011;9676;50.916;13.352;2022-10-30T13:48:49;10.20;;;9.00;;
19087;SDS011;9676;50.916;13.352;2022-10-30T13:51:33;12.57;;;9.50;;
19087;SDS011;9676;50.916;13.352;2022-10-30T13:54:09;12.33;;;9.57;;
19087;SDS011;9676;50.916;13.352;2022-10-30T13:56:46;12.40;;;9.70;;
19087;SDS011;9676;50.916;13.352;2022-10-30T13:59:19;11.27;;;9.53;;
19087;SDS011;9676;50.916;13.352;2022-10-30T14:02:03;13.80;;;9.67;;
19087;SDS011;9676;50.916;13.352;2022-10-30T14:04:41;11.93;;;9.53;;
19087;SDS011;9676;50.916;13.352;2022-10-30T14:07:21;11.90;;;9.47;;
19087;SDS011;9676;50.916;13.352;2022-10-30T14:09:58;11.70;;;9.50;;
19087;SDS011;9676;50.916;13.352;2022-10-30T14:15:43;11.40;;;10.20;;
19087;SDS011;9676;50.916;13.352;2022-10-30T14:18:21;10.50;;;9.40;;
19087;SDS011;9676;50.916;13.352;2022-10-30T14:21:33;11.70;;;9.40;;
19087;SDS011;9676;50.916;13.352;2022-10-30T14:24:13;11.37;;;9.50;;
19087;SDS011;9676;50.916;13.352;2022-10-30T14:26:46;10.57;;;9.30;;
19087;SDS011;9676;50.916;13.352;2022-10-30T14:29:29;11.87;;;9.00;;
19087;SDS011;9676;50.916;13.352;2022-10-30T14:32:33;10.30;;;9.00;;
19087;SDS011;9676;50.916;13.352;2022-10-30T14:35:30;10.67;;;9.10;;
19087;SDS011;9676;50.916;13.352;2022-10-30T14:38:23;12.27;;;9.50;;
19087;SDS011;9676;50.916;13.352;2022-10-30T14:41:06;12.30;;;9.10;;
19087;SDS011;9676;50.916;13.352;2022-10-30T14:50:14;10.60;;;9.50;;
19087;SDS011;9676;50.916;13.352;2022-10-30T14:53:08;12.50;;;9.30;;
19087;SDS011;9676;50.916;13.352;2022-10-30T14:56:03;10.87;;;9.70;;
19087;SDS011;9676;50.916;13.352;2022-10-30T14:58:38;11.97;;;9.60;;
19087;SDS011;9676;50.916;13.352;2022-10-30T15:01:21;11.43;;;9.70;;
19087;SDS011;9676;50.916;13.352;2022-10-30T15:04:03;12.13;;;9.60;;
19087;SDS011;9676;50.916;13.352;2022-10-30T15:06:47;12.33;;;9.07;;
19087;SDS011;9676;50.916;13.352;2022-10-30T15:12:32;10.90;;;9.60;;
19087;SDS011;9676;50.916;13.352;2022-10-30T15:15:28;12.00;;;9.60;;
19087;SDS011;9676;50.916;13.352;2022-10-30T15:18:00;12.50;;;9.60;;
19087;SDS011;9676;50.916;13.352;2022-10-30T15:20:36;13.37;;;9.57;;
19087;SDS011;9676;50.916;13.352;2022-10-30T15:23:09;11.60;;;9.20;;
19087;SDS011;9676;50.916;13.352;2022-10-30T15:25:49;12.40;;;9.20;;
19087;SDS011;9676;50.916;13.352;2022-10-30T15:28:22;15.00;;;10.07;;
19087;SDS011;9676;50.916;13.352;2022-10-30T15:30:57;12.70;;;10.73;;
19087;SDS011;9676;50.916;13.352;2022-10-30T15:33:28;13.00;;;10.30;;
19087;SDS011;9676;50.916;13.352;2022-10-30T15:35:59;11.83;;;10.43;;
19087;SDS011;9676;50.916;13.352;2022-10-30T15:38:29;13.67;;;11.10;;
19087;SDS011;9676;50.916;13.352;2022-10-30T15:41:00;14.00;;;11.30;;
19087;SDS011;9676;50.916;13.352;2022-10-30T15:43:31;16.43;;;11.97;;
19087;SDS011;9676;50.916;13.352;2022-10-30T15:46:07;16.70;;;13.00;;
19087;SDS011;9676;50.916;13.352;2022-10-30T15:48:38;17.77;;;13.80;;
19087;SDS011;9676;50.916;13.352;2022-10-30T15:51:14;22.63;;;14.63;;